createdAt,value
2022-11-04T00:04:28.763Z,100142.45
2022-11-04T00:09:32.388Z,100136.42
2022-11-04T00:14:35.890Z,100138.45
2022-11-04T00:19:57.756Z,100137.01
2022-11-04T00:25:19.697Z,100138.20
2022-11-04T00:30:22.890Z,100137.39
2022-11-04T00:35:26.100Z,100134.98
2022-11-04T00:40:29.205Z,100130.03
2022-11-04T00:45:32.313Z,100114.13
2022-11-04T00:50:35.725Z,100108.59
2022-11-04T00:55:38.724Z,100111.46
2022-11-04T01:00:41.829Z,100108.37
2022-11-04T01:05:45.141Z,100103.84
2022-11-04T01:10:48.656Z,100099.55
2022-11-04T01:15:51.866Z,100090.33
2022-11-04T01:20:56.190Z,100083.80
2022-11-04T01:25:59.655Z,100074.36
2022-11-04T01:31:15.176Z,100066.29
2022-11-04T01:36:18.930Z,100060.26
2022-11-04T01:41:31.561Z,100052.67
2022-11-04T01:46:50.538Z,100045.77
2022-11-04T01:52:01.322Z,100038.38
2022-11-04T01:57:08.825Z,100032.35
2022-11-04T02:02:12.394Z,100020.71
2022-11-04T02:07:15.962Z,100014.36
2022-11-04T02:12:38.218Z,99999.71
2022-11-04T02:17:51.460Z,99987.14
2022-11-04T02:23:18.835Z,99986.80
2022-11-04T02:28:30.748Z,99993.83
2022-11-04T02:33:58.431Z,99990.84
2022-11-04T02:39:13.617Z,99982.23
2022-11-04T02:44:26.349Z,99976.65
2022-11-04T02:49:46.146Z,99961.57
2022-11-04T02:54:52.220Z,99961.13
2022-11-04T03:00:08.174Z,99949.66
2022-11-04T03:05:17.069Z,99952.15
2022-11-04T03:10:29.186Z,99961.80
2022-11-04T03:15:35.571Z,99946.77
2022-11-04T03:20:41.816Z,99937.56
2022-11-04T03:25:47.936Z,99936.27
2022-11-04T03:30:56.154Z,99932.13
2022-11-04T03:35:59.359Z,99932.30
2022-11-04T03:41:07.583Z,99935.61
2022-11-04T03:46:11.301Z,99933.65
2022-11-04T03:51:14.422Z,99933.16
2022-11-04T03:56:35.843Z,99924.61
2022-11-04T04:02:04.779Z,99917.40
2022-11-04T04:07:19.741Z,99903.67
2022-11-04T04:12:34.314Z,99903.98
2022-11-04T04:18:09.835Z,99911.28
2022-11-04T04:23:38.481Z,99918.28
2022-11-04T04:28:42.816Z,99906.96
2022-11-04T04:33:46.025Z,99902.53
2022-11-04T04:39:08.178Z,99905.33
2022-11-04T04:44:47.760Z,99902.91
2022-11-04T04:49:55.659Z,99906.35
2022-11-04T04:54:58.879Z,99904.06
2022-11-04T05:00:02.072Z,99891.98
2022-11-04T05:05:06.072Z,99884.25
2022-11-04T05:10:11.578Z,99888.05
2022-11-04T05:15:15.103Z,99888.98
2022-11-04T05:20:18.798Z,99885.14
2022-11-04T05:25:22.106Z,99889.26
2022-11-04T05:30:25.209Z,99883.81
2022-11-04T05:35:28.525Z,99880.56
2022-11-04T05:40:31.831Z,99879.39
2022-11-04T05:45:35.141Z,99875.30
2022-11-04T05:50:41.665Z,99869.05
2022-11-04T05:55:44.935Z,99873.81
2022-11-04T06:00:48.143Z,99876.61
2022-11-04T06:05:51.452Z,99881.93
2022-11-04T06:10:55.181Z,99882.96
2022-11-04T06:15:58.524Z,99882.20
2022-11-04T06:21:16.234Z,99882.86
2022-11-04T06:26:23.853Z,99873.16
2022-11-04T06:31:30.246Z,99871.05
2022-11-04T06:36:33.843Z,99869.20
2022-11-04T06:41:37.462Z,99865.77
2022-11-04T06:46:42.819Z,99867.61
2022-11-04T06:51:47.262Z,99856.11
2022-11-04T06:56:50.568Z,99852.48
2022-11-04T07:01:53.911Z,99850.02
2022-11-04T07:06:57.291Z,99843.20
2022-11-04T07:12:00.806Z,99844.26
2022-11-04T07:17:04.679Z,99848.61
2022-11-04T07:22:08.759Z,99837.95
2022-11-04T07:27:12.069Z,99835.73
2022-11-04T07:32:16.000Z,99849.27
2022-11-04T07:37:19.812Z,99845.83
2022-11-04T07:42:23.328Z,99840.20
2022-11-04T07:47:30.570Z,99836.86
2022-11-04T07:52:33.737Z,99838.05
2022-11-04T07:57:36.946Z,99834.45
2022-11-04T08:02:40.418Z,99824.69
2022-11-04T08:07:44.285Z,99808.98
2022-11-04T08:12:48.413Z,99808.86
2022-11-04T08:17:51.622Z,99814.98
2022-11-04T08:22:54.833Z,99824.48
2022-11-04T08:28:00.898Z,99822.52
2022-11-04T08:33:05.862Z,99832.83
2022-11-04T08:38:09.778Z,99829.12
2022-11-04T08:43:13.601Z,99826.59
2022-11-04T08:48:16.910Z,99827.19
2022-11-04T08:53:20.427Z,99831.98
2022-11-04T08:58:25.110Z,99827.19
2022-11-04T09:03:28.716Z,99833.91
2022-11-04T09:08:32.814Z,99837.88
2022-11-04T09:13:39.570Z,99838.07
2022-11-04T09:18:43.736Z,99840.09
2022-11-04T09:23:46.942Z,99834.52
2022-11-04T09:28:54.592Z,99830.38
2022-11-04T09:33:58.275Z,99823.40
2022-11-04T09:39:01.386Z,99820.89
2022-11-04T09:44:12.983Z,99820.30
2022-11-04T09:49:17.017Z,99810.05
2022-11-04T09:54:26.053Z,99808.53
2022-11-04T09:59:33.257Z,99807.90
2022-11-04T10:05:06.162Z,99802.00
2022-11-04T10:10:41.319Z,99787.21
2022-11-04T10:16:18.423Z,99781.42
2022-11-04T10:21:24.597Z,99776.02
2022-11-04T10:26:34.360Z,99763.90
2022-11-04T10:31:40.235Z,99756.80
2022-11-04T10:36:47.637Z,99752.68
2022-11-04T10:41:50.947Z,99746.02
2022-11-04T10:47:28.252Z,99746.27
2022-11-04T10:52:35.935Z,99737.46
2022-11-04T10:57:39.500Z,99729.88
2022-11-04T11:02:49.550Z,99733.77
2022-11-04T11:07:55.949Z,99734.45
2022-11-04T11:13:02.531Z,99722.80
2022-11-04T11:18:21.497Z,99717.04
2022-11-04T11:23:40.270Z,99718.40
2022-11-04T11:28:55.830Z,99713.48
2022-11-04T11:34:06.135Z,99698.21
2022-11-04T11:39:12.628Z,99685.70
2022-11-04T11:44:37.020Z,99681.79
2022-11-04T11:49:40.136Z,99686.77
2022-11-04T11:54:46.376Z,99679.48
2022-11-04T12:11:34.142Z,99656.44
2022-11-04T12:16:56.395Z,99655.06
2022-11-04T12:22:14.141Z,99656.41
2022-11-04T12:27:26.670Z,99653.04
2022-11-04T12:33:07.492Z,99651.43
2022-11-04T12:38:39.132Z,99647.61
2022-11-04T12:43:45.721Z,99646.69
2022-11-04T12:49:07.975Z,99646.48
2022-11-04T12:54:38.115Z,99649.77
2022-11-04T13:00:05.009Z,99649.25
2022-11-04T13:05:14.534Z,99640.54
2022-11-04T13:10:35.148Z,99637.27
2022-11-04T13:15:52.635Z,99642.45
2022-11-04T13:21:14.435Z,99646.70
2022-11-04T13:26:18.666Z,99646.95
2022-11-04T13:31:39.794Z,99644.91
2022-11-04T13:37:04.611Z,99651.52
2022-11-04T13:42:26.654Z,99649.15
2022-11-04T13:47:45.123Z,99643.74
2022-11-04T13:52:52.741Z,99642.57
2022-11-04T13:58:01.786Z,99645.08
2022-11-04T14:03:29.564Z,99649.40
2022-11-04T14:08:34.475Z,99647.30
2022-11-04T14:13:44.375Z,99648.52
2022-11-04T14:18:50.727Z,99646.20
2022-11-04T14:23:56.666Z,99640.88
2022-11-04T14:29:08.275Z,99634.64
2022-11-04T14:34:30.394Z,99637.71
2022-11-04T14:39:39.224Z,99645.27
2022-11-04T14:44:42.333Z,99646.65
2022-11-04T14:49:45.538Z,99649.41
2022-11-04T14:54:50.288Z,99656.09
2022-11-04T14:59:54.112Z,99664.73
2022-11-04T15:04:59.977Z,99671.77
2022-11-04T15:10:20.651Z,99665.85
2022-11-04T15:15:39.263Z,99667.55
2022-11-04T15:20:49.787Z,99660.15
2022-11-04T15:25:53.051Z,99657.04
2022-11-04T15:31:21.756Z,99655.30
2022-11-04T15:36:29.573Z,99660.68
2022-11-04T15:41:53.771Z,99663.62
2022-11-04T15:47:00.975Z,99674.70
2022-11-04T15:52:16.571Z,99673.87
2022-11-04T15:57:27.988Z,99678.67
2022-11-04T16:02:50.966Z,99681.43
2022-11-04T16:07:59.795Z,99683.86
2022-11-04T16:13:22.749Z,99692.50
2022-11-04T16:18:38.044Z,99694.22
2022-11-04T16:23:51.493Z,99699.84
2022-11-04T16:28:56.544Z,99704.38
2022-11-04T16:34:00.971Z,99706.80
2022-11-04T16:39:09.375Z,99708.98
2022-11-04T16:44:22.759Z,99710.30
2022-11-04T16:49:26.169Z,99708.71
2022-11-04T16:54:29.993Z,99706.96
2022-11-04T16:59:33.614Z,99703.23
2022-11-04T17:04:37.021Z,99706.21
2022-11-04T17:09:40.540Z,99702.68
2022-11-04T17:14:43.744Z,99701.09
2022-11-04T17:19:47.360Z,99693.02
2022-11-04T17:24:50.671Z,99689.87
2022-11-04T17:29:53.782Z,99682.54
2022-11-04T17:34:57.704Z,99676.98
2022-11-04T17:40:01.216Z,99678.38
2022-11-04T17:45:06.840Z,99681.85
2022-11-04T17:50:12.139Z,99685.22
2022-11-04T17:55:18.826Z,99682.01
2022-11-04T18:00:29.939Z,99674.41
2022-11-04T18:05:33.443Z,99673.87
2022-11-04T18:10:36.646Z,99676.20
2022-11-04T18:15:41.599Z,99684.59
2022-11-04T18:20:45.008Z,99682.38
2022-11-04T18:25:50.830Z,99676.41
2022-11-04T18:30:54.904Z,99675.52
2022-11-04T18:36:03.656Z,99669.45
2022-11-04T18:41:07.360Z,99667.27
2022-11-04T18:46:14.006Z,99669.43
2022-11-04T18:51:23.002Z,99671.73
2022-11-04T18:56:26.407Z,99670.15
2022-11-04T19:01:33.602Z,99667.80
2022-11-04T19:06:41.583Z,99671.64
2022-11-04T19:11:45.085Z,99663.81
2022-11-04T19:16:48.540Z,99651.64
2022-11-04T19:21:51.777Z,99657.40
2022-11-04T19:26:55.280Z,99661.66
2022-11-04T19:31:59.207Z,99661.45
2022-11-04T19:37:04.034Z,99665.04
2022-11-04T19:42:27.130Z,99669.53
2022-11-04T19:47:31.160Z,99672.36
2022-11-04T19:52:34.264Z,99670.71
2022-11-04T19:57:39.111Z,99663.57
2022-11-04T20:02:42.715Z,99670.77
2022-11-04T20:07:47.328Z,99668.77
2022-11-04T20:13:10.236Z,99671.73
2022-11-04T20:18:13.520Z,99671.31
2022-11-04T20:23:16.657Z,99673.21
2022-11-04T20:28:21.293Z,99669.20
2022-11-04T20:33:24.811Z,99671.62
2022-11-04T20:38:28.834Z,99666.45
2022-11-04T20:43:34.220Z,99659.63
2022-11-04T20:48:38.798Z,99661.90
2022-11-04T20:53:43.685Z,99664.65
2022-11-04T20:58:48.492Z,99669.64
2022-11-04T21:04:15.286Z,99664.69
2022-11-04T21:09:20.834Z,99659.14
2022-11-04T21:14:24.715Z,99658.84
2022-11-04T21:19:29.069Z,99655.16
2022-11-04T21:24:38.861Z,99655.93
2022-11-04T21:29:43.493Z,99652.53
2022-11-04T21:34:47.035Z,99649.01
2022-11-04T21:39:50.241Z,99650.13
2022-11-04T21:44:55.188Z,99645.48
2022-11-04T21:50:00.517Z,99646.16
2022-11-04T21:55:05.451Z,99641.55
2022-11-04T22:00:11.751Z,99643.22
2022-11-04T22:05:15.390Z,99640.31
2022-11-04T22:10:19.114Z,99642.05
2022-11-04T22:15:41.471Z,99645.48
2022-11-04T22:20:44.808Z,99634.19
2022-11-04T22:25:50.258Z,99635.27
2022-11-04T22:30:54.214Z,99644.21
2022-11-04T22:35:57.475Z,99639.10
2022-11-04T22:41:01.505Z,99637.30
2022-11-04T22:46:28.161Z,99634.91
2022-11-04T22:51:32.770Z,99634.27
2022-11-04T22:56:36.627Z,99634.98
2022-11-04T23:01:39.861Z,99640.10
2022-11-04T23:06:43.348Z,99646.39
2022-11-04T23:12:05.095Z,99645.98
2022-11-04T23:17:40.047Z,99655.69
2022-11-04T23:23:02.297Z,99650.98
2022-11-04T23:28:24.143Z,99642.75
2022-11-04T23:33:46.397Z,99640.88
2022-11-04T23:38:50.546Z,99643.79
2022-11-04T23:43:53.837Z,99646.91
2022-11-04T23:49:16.194Z,99648.93
2022-11-04T23:54:38.551Z,99644.79
